createdAt,value
2022-10-26T00:08:02.852Z,100106.65
2022-10-26T00:16:28.230Z,100112.17
2022-10-26T00:24:51.063Z,100119.36
2022-10-26T00:33:13.909Z,100119.68
2022-10-26T00:41:36.964Z,100118.69
2022-10-26T00:50:05.957Z,100114.46
2022-10-26T00:58:29.275Z,100111.60
2022-10-26T01:06:52.395Z,100112.41
2022-10-26T01:15:15.436Z,100116.73
2022-10-26T01:23:55.735Z,100115.98
2022-10-26T01:32:28.759Z,100129.20
2022-10-26T01:41:13.001Z,100127.39
2022-10-26T01:49:41.517Z,100127.91
2022-10-26T01:58:13.364Z,100124.73
2022-10-26T02:06:51.368Z,100135.56
2022-10-26T02:15:24.274Z,100132.99
2022-10-26T02:23:49.482Z,100136.30
2022-10-26T02:32:13.485Z,100143.33
2022-10-26T02:40:37.704Z,100145.94
2022-10-26T02:49:01.122Z,100144.52
2022-10-26T02:57:30.095Z,100153.64
2022-10-26T03:05:52.934Z,100161.09
2022-10-26T03:14:15.789Z,100168.25
2022-10-26T03:22:38.605Z,100172.23
2022-10-26T03:31:01.346Z,100185.15
2022-10-26T03:39:24.259Z,100192.36
2022-10-26T03:47:48.477Z,100197.92
2022-10-26T03:56:11.439Z,100202.20
2022-10-26T04:04:34.347Z,100200.98
2022-10-26T04:12:58.942Z,100201.05
2022-10-26T04:21:21.864Z,100204.27
2022-10-26T04:29:44.661Z,100203.23
2022-10-26T04:38:07.694Z,100209.03
2022-10-26T04:46:30.536Z,100215.12
2022-10-26T04:54:53.468Z,100221.04
2022-10-26T05:03:16.346Z,100223.15
2022-10-26T05:11:39.130Z,100222.95
2022-10-26T05:20:05.963Z,100229.73
2022-10-26T05:28:28.689Z,100242.21
2022-10-26T05:36:53.441Z,100249.80
2022-10-26T05:45:18.179Z,100258.79
2022-10-26T05:53:41.074Z,100268.25
2022-10-26T06:02:06.687Z,100285.27
2022-10-26T06:10:29.750Z,100287.28
2022-10-26T06:19:02.073Z,100299.52
2022-10-26T06:27:27.861Z,100304.17
2022-10-26T06:35:56.745Z,100313.83
2022-10-26T06:44:23.766Z,100320.47
2022-10-26T06:52:56.220Z,100326.58
2022-10-26T07:01:19.378Z,100336.52
2022-10-26T07:09:42.181Z,100347.23
2022-10-26T07:18:06.878Z,100363.67
2022-10-26T07:26:30.667Z,100364.73
2022-10-26T07:34:53.589Z,100368.52
2022-10-26T07:43:16.803Z,100370.49
2022-10-26T07:51:39.554Z,100369.88
2022-10-26T08:00:03.749Z,100371.11
2022-10-26T08:08:27.729Z,100378.06
2022-10-26T08:16:52.585Z,100380.81
2022-10-26T08:25:17.716Z,100380.97
2022-10-26T08:33:45.046Z,100386.10
2022-10-26T08:42:24.032Z,100390.25
2022-10-26T08:50:46.812Z,100402.08
2022-10-26T08:59:35.988Z,100407.75
2022-10-26T09:08:09.585Z,100406.39
2022-10-26T09:17:07.496Z,100409.45
2022-10-26T09:25:40.677Z,100414.39
2022-10-26T09:34:06.998Z,100421.38
2022-10-26T09:43:02.445Z,100430.77
2022-10-26T09:51:27.244Z,100435.67
2022-10-26T09:59:52.618Z,100443.49
2022-10-26T10:08:26.833Z,100439.98
2022-10-26T10:16:56.480Z,100440.60
2022-10-26T10:25:31.770Z,100443.33
2022-10-26T10:33:54.624Z,100450.00
2022-10-26T10:42:23.709Z,100451.02
2022-10-26T10:51:11.085Z,100455.81
2022-10-26T11:00:12.407Z,100456.29
2022-10-26T11:08:43.109Z,100459.44
2022-10-26T11:17:38.176Z,100457.25
2022-10-26T11:26:04.738Z,100457.48
2022-10-26T11:34:48.169Z,100458.94
2022-10-26T11:43:41.946Z,100461.40
2022-10-26T11:52:47.999Z,100461.61
2022-10-26T12:01:17.357Z,100463.30
2022-10-26T12:09:44.019Z,100462.20
2022-10-26T12:18:26.869Z,100464.70
2022-10-26T12:26:59.790Z,100466.19
2022-10-26T12:35:43.336Z,100466.30
2022-10-26T12:44:32.203Z,100462.56
2022-10-26T12:53:05.447Z,100461.65
2022-10-26T13:01:31.354Z,100454.77
2022-10-26T13:09:58.677Z,100451.50
2022-10-26T13:18:22.607Z,100455.64
2022-10-26T13:27:08.131Z,100464.77
2022-10-26T13:35:31.918Z,100460.27
2022-10-26T13:43:55.081Z,100458.17
2022-10-26T13:52:29.175Z,100469.02
2022-10-26T14:01:12.416Z,100462.98
2022-10-26T14:09:35.701Z,100464.20
2022-10-26T14:18:01.149Z,100467.43
2022-10-26T14:26:31.372Z,100477.64
2022-10-26T14:34:54.783Z,100485.06
2022-10-26T14:43:22.746Z,100490.90
2022-10-26T14:51:45.638Z,100500.15
2022-10-26T15:00:21.964Z,100507.12
2022-10-26T15:08:52.647Z,100509.06
2022-10-26T15:17:36.952Z,100510.69
2022-10-26T15:26:01.860Z,100514.95
2022-10-26T15:34:24.701Z,100519.70
2022-10-26T15:42:51.625Z,100527.84
2022-10-26T15:51:14.726Z,100532.57
2022-10-26T15:59:38.485Z,100535.67
2022-10-26T16:08:01.433Z,100538.69
2022-10-26T16:16:24.323Z,100542.67
2022-10-26T16:24:47.204Z,100554.16
2022-10-26T16:33:09.933Z,100561.63
2022-10-26T16:41:33.291Z,100567.67
2022-10-26T16:49:56.056Z,100578.20
2022-10-26T16:58:18.876Z,100582.41
2022-10-26T17:06:41.642Z,100585.83
2022-10-26T17:15:04.730Z,100582.98
2022-10-26T17:23:27.780Z,100591.73
2022-10-26T17:31:50.633Z,100590.94
2022-10-26T17:40:19.364Z,100593.09
2022-10-26T17:48:42.397Z,100597.02
2022-10-26T17:57:05.133Z,100597.09
2022-10-26T18:05:31.573Z,100602.92
2022-10-26T18:13:55.386Z,100608.38
2022-10-26T18:22:18.325Z,100620.11
2022-10-26T18:30:42.231Z,100633.50
2022-10-26T18:39:05.349Z,100644.02
2022-10-26T18:47:32.188Z,100651.91
2022-10-26T18:56:00.896Z,100659.58
2022-10-26T19:04:24.931Z,100668.39
2022-10-26T19:12:47.719Z,100672.48
2022-10-26T19:21:12.906Z,100682.27
2022-10-26T19:29:35.887Z,100693.14
2022-10-26T19:37:58.612Z,100700.45
2022-10-26T19:46:24.708Z,100710.19
2022-10-26T19:54:47.463Z,100715.10
2022-10-26T20:03:11.823Z,100721.66
2022-10-26T20:11:36.574Z,100728.22
2022-10-26T20:19:59.443Z,100733.21
2022-10-26T20:28:22.466Z,100739.87
2022-10-26T20:36:45.277Z,100744.70
2022-10-26T20:45:09.852Z,100751.02
2022-10-26T20:53:38.105Z,100760.84
2022-10-26T21:02:00.919Z,100757.26
2022-10-26T21:10:23.688Z,100763.75
2022-10-26T21:18:46.495Z,100760.84
2022-10-26T21:27:09.225Z,100767.08
2022-10-26T21:35:31.968Z,100770.16
2022-10-26T21:44:03.490Z,100769.27
2022-10-26T21:52:32.734Z,100775.23
2022-10-26T22:00:55.952Z,100780.56
2022-10-26T22:09:18.919Z,100780.38
2022-10-26T22:17:42.053Z,100776.23
2022-10-26T22:26:06.839Z,100784.02
2022-10-26T22:34:29.541Z,100787.95
2022-10-26T22:42:52.661Z,100785.73
2022-10-26T22:51:18.731Z,100780.67
2022-10-26T22:59:41.442Z,100786.30
2022-10-26T23:08:04.437Z,100789.54
2022-10-26T23:16:28.789Z,100796.33
2022-10-26T23:24:51.618Z,100789.91
2022-10-26T23:33:14.446Z,100789.05
2022-10-26T23:41:37.167Z,100794.78
2022-10-26T23:50:00.110Z,100789.94
2022-10-26T23:58:22.912Z,100789.00
